Time;durP1;ratioP1;P1;durP2;ratioP2;P2;SDS_P1;SDS_P2;PMS_P1;PMS_P2;Temp;Humidity;BMP_temperature;BMP_pressure;BME280_temperature;BME280_humidity;BME280_pressure;Samples;Min_cycle;Max_cycle;Signal;HPM_P1;HPM_P2
2022/07/04 00:00:19;;;;;;;2.92;1.80;;;20.20;99.90;;;;;;5025661;28;20577;-79
2022/07/04 00:02:46;;;;;;;2.25;1.58;;;20.00;99.90;;;;;;5058684;28;20176;-79
2022/07/04 00:05:12;;;;;;;1.90;1.80;;;19.90;99.90;;;;;;5041721;28;20204;-79
2022/07/04 00:07:39;;;;;;;2.72;1.65;;;19.70;99.90;;;;;;5058161;28;20193;-79
2022/07/04 00:10:06;;;;;;;2.03;1.55;;;19.50;99.90;;;;;;5058638;28;20208;-79
2022/07/04 00:12:32;;;;;;;1.75;1.50;;;19.60;99.90;;;;;;5040987;28;20177;-79
2022/07/04 00:14:57;;;;;;;2.63;1.58;;;19.60;99.90;;;;;;5024827;28;20198;-79
2022/07/04 00:17:23;;;;;;;2.20;1.60;;;19.70;99.90;;;;;;5041579;28;20198;-79
2022/07/04 00:19:49;;;;;;;2.22;1.60;;;19.90;99.90;;;;;;5058082;28;20705;-79
2022/07/04 00:22:14;;;;;;;2.47;1.60;;;20.00;99.90;;;;;;5059693;28;20195;-79
2022/07/04 00:24:40;;;;;;;3.90;1.80;;;20.10;99.90;;;;;;5041255;28;20245;-79
2022/07/04 00:27:05;;;;;;;1.90;1.67;;;20.00;99.90;;;;;;5024577;28;20790;-79
2022/07/04 00:29:32;;;;;;;1.80;1.70;;;19.80;99.90;;;;;;5041245;28;20209;-79
2022/07/04 00:31:59;;;;;;;2.58;1.77;;;19.70;99.90;;;;;;5041083;28;20185;-79
2022/07/04 00:34:24;;;;;;;2.08;1.88;;;19.60;99.90;;;;;;5041154;28;20169;-79
2022/07/04 00:36:50;;;;;;;1.83;1.73;;;19.60;99.90;;;;;;5040846;28;20200;-79
2022/07/04 00:39:16;;;;;;;1.98;1.73;;;19.60;99.90;;;;;;5040948;28;20264;-79
2022/07/04 00:41:41;;;;;;;3.38;1.70;;;19.50;99.90;;;;;;5040760;28;20185;-79
2022/07/04 00:44:09;;;;;;;1.85;1.60;;;19.30;99.90;;;;;;5041003;28;20250;-79
2022/07/04 00:46:35;;;;;;;2.22;1.67;;;19.40;99.90;;;;;;5040867;28;20198;-79
2022/07/04 00:49:03;;;;;;;1.90;1.70;;;19.30;99.90;;;;;;5024034;28;20544;-78
2022/07/04 00:51:29;;;;;;;1.83;1.70;;;19.20;99.90;;;;;;5056494;28;20173;-79
2022/07/04 00:53:55;;;;;;;3.28;1.85;;;19.00;99.90;;;;;;5040090;28;20182;-79
2022/07/04 00:56:24;;;;;;;3.13;1.90;;;18.90;99.90;;;;;;5056151;28;20235;-78
2022/07/04 00:58:51;;;;;;;1.88;1.60;;;18.80;99.90;;;;;;5040665;28;20170;-78
2022/07/04 01:01:21;;;;;;;2.60;1.70;;;18.90;99.90;;;;;;5039333;28;20248;-78
2022/07/04 01:03:47;;;;;;;2.95;1.60;;;18.80;99.90;;;;;;5055701;28;20173;-78
2022/07/04 01:06:18;;;;;;;2.05;1.70;;;18.70;99.90;;;;;;5056671;28;20200;-78
2022/07/04 01:08:43;;;;;;;2.33;1.80;;;18.80;99.90;;;;;;5057415;28;20166;-78
2022/07/04 01:11:10;;;;;;;2.63;1.58;;;18.80;99.90;;;;;;5056360;28;20193;-78
2022/07/04 01:13:36;;;;;;;2.30;1.70;;;18.90;99.90;;;;;;5039663;28;20181;-78
2022/07/04 01:16:03;;;;;;;2.17;1.77;;;18.60;99.90;;;;;;5040334;28;20203;-78
2022/07/04 01:18:29;;;;;;;1.88;1.50;;;18.50;99.90;;;;;;5057679;28;20178;-78
2022/07/04 01:20:54;;;;;;;1.93;1.47;;;18.40;99.90;;;;;;5056422;28;20602;-78
2022/07/04 01:23:20;;;;;;;1.70;1.60;;;18.20;99.90;;;;;;5055871;28;20174;-78
2022/07/04 01:25:46;;;;;;;1.80;1.70;;;18.20;99.90;;;;;;5039427;28;20255;-78
2022/07/04 01:28:12;;;;;;;2.63;1.70;;;18.10;99.90;;;;;;5057649;28;20174;-78
2022/07/04 01:30:38;;;;;;;2.20;1.73;;;18.20;99.90;;;;;;5056081;28;20220;-78
2022/07/04 01:33:04;;;;;;;1.80;1.70;;;18.20;99.90;;;;;;5055610;28;20279;-78
2022/07/04 01:35:30;;;;;;;2.35;1.85;;;18.30;99.90;;;;;;5022250;28;20178;-78
2022/07/04 01:37:57;;;;;;;1.97;1.67;;;18.30;99.90;;;;;;5055632;28;20199;-78
2022/07/04 01:40:23;;;;;;;1.77;1.60;;;18.30;99.90;;;;;;5038830;28;20243;-78
2022/07/04 01:42:48;;;;;;;2.63;1.53;;;18.40;99.90;;;;;;5039332;28;20181;-79
2022/07/04 01:45:14;;;;;;;2.47;1.90;;;18.40;99.90;;;;;;5039168;28;20186;-78
2022/07/04 01:47:41;;;;;;;2.77;1.70;;;18.40;99.90;;;;;;5039044;28;20579;-78
2022/07/04 01:50:09;;;;;;;2.10;1.90;;;18.30;99.90;;;;;;5055812;28;20206;-78
2022/07/04 01:52:34;;;;;;;2.13;1.83;;;18.20;99.90;;;;;;5055537;28;20192;-78
2022/07/04 01:55:01;;;;;;;2.23;1.60;;;18.20;99.90;;;;;;5055992;28;20169;-78
2022/07/04 01:57:26;;;;;;;3.93;1.77;;;18.00;99.90;;;;;;5056288;28;20209;-78
2022/07/04 02:02:37;;;;;;;1.63;1.50;;;17.90;99.90;;;;;;5055705;28;20315;-78
2022/07/04 02:05:04;;;;;;;1.70;1.60;;;18.10;99.90;;;;;;5056723;28;20238;-78
2022/07/04 02:07:29;;;;;;;1.80;1.70;;;18.10;99.90;;;;;;5054844;28;20205;-78
2022/07/04 02:09:55;;;;;;;1.70;1.60;;;17.90;99.90;;;;;;5038264;28;20288;-78
2022/07/04 02:15:06;;;;;;;2.40;1.60;;;17.60;99.90;;;;;;5041327;28;20196;-78
2022/07/04 02:17:31;;;;;;;2.00;1.77;;;17.60;99.90;;;;;;5054819;28;20696;-78
2022/07/04 02:19:57;;;;;;;1.80;1.70;;;17.50;99.90;;;;;;5021761;28;20225;-78
2022/07/04 02:22:22;;;;;;;2.73;1.80;;;17.60;99.90;;;;;;5037436;28;20247;-78
2022/07/04 02:24:48;;;;;;;2.77;1.90;;;17.50;99.90;;;;;;5037961;28;20659;-78
2022/07/04 02:27:14;;;;;;;1.70;1.60;;;17.50;99.90;;;;;;5038119;28;20687;-78
2022/07/04 02:29:40;;;;;;;3.00;1.73;;;17.30;99.90;;;;;;5054183;28;20213;-78
2022/07/04 02:32:06;;;;;;;1.60;1.50;;;17.10;99.90;;;;;;5054694;28;20628;-78
2022/07/04 02:34:32;;;;;;;3.07;1.80;;;17.10;99.90;;;;;;5037747;28;20184;-78
2022/07/04 02:36:58;;;;;;;3.10;1.93;;;17.00;99.90;;;;;;5037819;28;20237;-78
2022/07/04 02:39:24;;;;;;;2.60;1.80;;;17.00;99.90;;;;;;5021014;28;20231;-78
2022/07/04 02:41:50;;;;;;;1.90;1.70;;;17.00;99.90;;;;;;5021336;28;20220;-78
2022/07/04 02:44:15;;;;;;;1.97;1.77;;;17.00;99.90;;;;;;5054310;28;20302;-78
2022/07/04 02:46:41;;;;;;;2.30;1.80;;;17.10;99.90;;;;;;5020831;28;20206;-78
2022/07/04 02:49:07;;;;;;;3.07;1.70;;;17.20;99.90;;;;;;5037255;28;20177;-78
2022/07/04 02:51:32;;;;;;;2.60;1.83;;;17.20;99.90;;;;;;5037532;28;20183;-78
2022/07/04 02:53:58;;;;;;;2.10;1.90;;;17.20;99.90;;;;;;5058301;28;20196;-78
2022/07/04 02:56:24;;;;;;;2.20;1.80;;;17.10;99.90;;;;;;5058836;28;20216;-78
2022/07/04 02:58:50;;;;;;;2.43;1.73;;;17.20;99.90;;;;;;5058589;28;20182;-78
2022/07/04 03:01:18;;;;;;;2.00;1.80;;;17.10;99.90;;;;;;5058543;28;20184;-78
2022/07/04 03:03:43;;;;;;;2.10;1.70;;;17.10;99.90;;;;;;5041913;28;20197;-78
2022/07/04 03:06:10;;;;;;;1.80;1.70;;;17.00;99.90;;;;;;5057494;28;20198;-78
2022/07/04 03:08:36;;;;;;;2.70;1.80;;;17.20;99.90;;;;;;5024392;28;20654;-78
2022/07/04 03:11:03;;;;;;;2.57;1.70;;;17.20;99.90;;;;;;5058326;28;20272;-78
2022/07/04 03:13:28;;;;;;;1.83;1.73;;;17.00;99.90;;;;;;5040406;28;20185;-78
2022/07/04 03:15:54;;;;;;;2.23;1.80;;;16.90;99.90;;;;;;5057357;28;20252;-78
2022/07/04 03:18:20;;;;;;;2.00;1.80;;;16.90;99.90;;;;;;5056769;28;20231;-78
2022/07/04 03:20:46;;;;;;;1.87;1.77;;;16.90;99.90;;;;;;5040528;28;20177;-78
2022/07/04 03:23:12;;;;;;;1.73;1.63;;;16.70;99.90;;;;;;5039764;28;20202;-78
2022/07/04 03:25:39;;;;;;;2.10;1.90;;;16.70;99.90;;;;;;5041670;28;20177;-78
2022/07/04 03:28:06;;;;;;;2.80;1.90;;;16.80;99.90;;;;;;5061047;28;20174;-78
2022/07/04 03:30:32;;;;;;;1.80;1.70;;;16.70;99.90;;;;;;5027296;28;20232;-78
2022/07/04 03:32:58;;;;;;;1.77;1.67;;;16.40;99.90;;;;;;5044050;28;20185;-78
2022/07/04 03:35:24;;;;;;;2.90;1.80;;;16.50;99.90;;;;;;5060632;28;20205;-78
2022/07/04 03:37:50;;;;;;;1.80;1.70;;;16.50;99.90;;;;;;5044089;28;20208;-78
2022/07/04 03:40:17;;;;;;;1.80;1.70;;;16.40;99.90;;;;;;5060557;28;20197;-78
2022/07/04 03:42:43;;;;;;;1.97;1.77;;;16.60;99.90;;;;;;5043608;28;20713;-78
2022/07/04 03:45:09;;;;;;;1.90;1.70;;;16.60;99.90;;;;;;5043067;28;20178;-78
2022/07/04 03:47:34;;;;;;;2.00;1.80;;;16.70;99.90;;;;;;5059625;28;20197;-78
2022/07/04 03:50:00;;;;;;;1.90;1.80;;;16.60;99.90;;;;;;5043859;28;20205;-78
2022/07/04 03:52:26;;;;;;;1.80;1.70;;;16.60;99.90;;;;;;5026089;28;20190;-78
2022/07/04 03:54:51;;;;;;;2.47;2.10;;;16.60;99.90;;;;;;5059505;28;20177;-78
2022/07/04 03:57:17;;;;;;;2.13;1.83;;;16.50;99.90;;;;;;5099597;22;20225;-78
2022/07/04 03:59:43;;;;;;;2.40;1.80;;;16.50;99.90;;;;;;5025860;28;20181;-78
2022/07/04 04:02:08;;;;;;;2.83;2.10;;;16.70;99.90;;;;;;5042180;28;20243;-78
2022/07/04 04:07:18;;;;;;;2.43;1.90;;;16.60;99.90;;;;;;5061933;28;20580;-78
2022/07/04 04:09:44;;;;;;;2.13;1.80;;;16.50;99.90;;;;;;5042281;28;20201;-78
2022/07/04 04:12:09;;;;;;;2.20;2.00;;;16.40;99.90;;;;;;5041960;28;20183;-78
2022/07/04 04:14:35;;;;;;;2.57;1.73;;;16.30;99.90;;;;;;5025374;28;20173;-78
2022/07/04 04:17:00;;;;;;;2.30;1.80;;;16.20;99.90;;;;;;5042253;28;20721;-78
2022/07/04 04:19:26;;;;;;;2.23;1.90;;;16.10;99.90;;;;;;5024727;28;20185;-78
2022/07/04 04:21:52;;;;;;;2.00;1.90;;;16.10;99.90;;;;;;5041511;28;20181;-78
2022/07/04 04:24:17;;;;;;;2.30;2.10;;;16.00;99.90;;;;;;5025647;28;20210;-78
2022/07/04 04:26:43;;;;;;;2.23;1.60;;;16.20;99.90;;;;;;5058326;28;20193;-78
2022/07/04 04:29:09;;;;;;;1.90;1.60;;;16.20;99.90;;;;;;5042188;28;20712;-78
2022/07/04 04:31:34;;;;;;;1.90;1.80;;;16.20;99.90;;;;;;5041461;28;20181;-77
2022/07/04 04:34:00;;;;;;;2.10;2.00;;;16.30;99.90;;;;;;5040077;28;20180;-78
2022/07/04 04:36:25;;;;;;;2.00;1.80;;;16.30;99.90;;;;;;5040036;28;20204;-77
2022/07/04 04:38:51;;;;;;;1.90;1.80;;;16.30;99.90;;;;;;5056989;28;20200;-77
2022/07/04 04:41:17;;;;;;;2.20;2.00;;;16.10;99.90;;;;;;5023495;28;20260;-77
2022/07/04 04:43:42;;;;;;;2.30;1.83;;;16.10;99.90;;;;;;5040110;28;20252;-77
2022/07/04 04:46:09;;;;;;;2.33;1.87;;;16.10;99.90;;;;;;5040080;28;20330;-77
2022/07/04 04:48:35;;;;;;;2.20;1.80;;;16.20;99.90;;;;;;5056741;28;20617;-77
2022/07/04 04:51:00;;;;;;;2.30;2.10;;;16.30;99.90;;;;;;5039967;28;20300;-77
2022/07/04 04:53:26;;;;;;;1.90;1.77;;;16.40;99.90;;;;;;5039718;28;20177;-78
2022/07/04 04:55:55;;;;;;;2.30;1.90;;;16.40;99.90;;;;;;5039780;28;20180;-77
2022/07/04 04:58:21;;;;;;;2.00;1.90;;;16.50;99.90;;;;;;5056582;28;20172;-77
2022/07/04 05:00:50;;;;;;;2.53;2.10;;;16.40;99.90;;;;;;5056490;28;20203;-77
2022/07/04 05:03:16;;;;;;;1.90;1.80;;;16.40;99.90;;;;;;5040264;28;20192;-77
2022/07/04 05:05:42;;;;;;;2.03;1.93;;;16.50;99.90;;;;;;5056463;28;20208;-77
2022/07/04 05:08:08;;;;;;;2.43;2.20;;;16.50;99.90;;;;;;5039835;28;20230;-77
2022/07/04 05:10:34;;;;;;;2.53;2.20;;;16.70;99.90;;;;;;5056127;28;20201;-77
2022/07/04 05:13:00;;;;;;;2.37;2.13;;;16.70;99.90;;;;;;5056255;28;20177;-77
2022/07/04 05:15:25;;;;;;;3.17;2.17;;;16.80;99.90;;;;;;5023301;28;20239;-77
2022/07/04 05:17:51;;;;;;;2.63;2.10;;;16.80;99.90;;;;;;5022988;28;20200;-77
2022/07/04 05:20:17;;;;;;;2.73;2.20;;;16.80;99.90;;;;;;5023041;28;20181;-77
2022/07/04 05:22:43;;;;;;;3.03;2.17;;;17.00;99.90;;;;;;5039250;28;20722;-77
2022/07/04 05:25:08;;;;;;;2.50;2.30;;;17.10;99.90;;;;;;5056217;28;20181;-77
2022/07/04 05:27:34;;;;;;;2.27;2.10;;;17.10;99.90;;;;;;5039244;28;20205;-77
2022/07/04 05:30:00;;;;;;;2.40;2.20;;;17.20;99.90;;;;;;5039440;28;20205;-77
2022/07/04 05:32:26;;;;;;;3.70;2.50;;;17.40;99.90;;;;;;5039576;28;20169;-77
2022/07/04 05:34:51;;;;;;;3.73;2.30;;;17.50;99.90;;;;;;5055699;28;20193;-78
2022/07/04 05:37:17;;;;;;;2.70;2.50;;;17.60;99.90;;;;;;5038993;28;20246;-77
2022/07/04 05:39:43;;;;;;;3.07;2.57;;;17.60;99.90;;;;;;5073624;28;20177;-77
2022/07/04 05:42:09;;;;;;;2.50;2.30;;;17.60;99.90;;;;;;5055678;28;20173;-77
2022/07/04 05:44:34;;;;;;;3.53;2.50;;;17.70;99.90;;;;;;5055542;28;20173;-77
2022/07/04 05:47:00;;;;;;;2.30;2.10;;;17.70;99.90;;;;;;5073654;28;20192;-78
2022/07/04 05:49:25;;;;;;;2.27;1.90;;;17.70;99.90;;;;;;5039655;28;20232;-78
2022/07/04 05:51:51;;;;;;;3.60;2.20;;;17.90;99.90;;;;;;5040163;28;20378;-77
2022/07/04 05:54:17;;;;;;;2.50;2.30;;;18.10;99.90;;;;;;5040987;28;20177;-78
2022/07/04 05:56:43;;;;;;;3.50;2.13;;;18.20;99.90;;;;;;5024331;28;20217;-78
2022/07/04 05:59:09;;;;;;;3.63;2.00;;;18.20;99.90;;;;;;5023631;28;20533;-77
2022/07/04 06:01:36;;;;;;;2.77;2.57;;;18.30;99.90;;;;;;5056546;28;20180;-78
2022/07/04 06:04:05;;;;;;;2.37;1.90;;;18.40;99.90;;;;;;5057290;28;20197;-77
2022/07/04 06:06:31;;;;;;;2.67;2.30;;;18.40;99.90;;;;;;5039597;28;20204;-76
2022/07/04 06:08:57;;;;;;;3.73;2.50;;;18.50;99.90;;;;;;5022383;28;20177;-75
2022/07/04 06:11:23;;;;;;;3.00;2.50;;;18.60;99.90;;;;;;5038539;28;20238;-76
2022/07/04 06:13:49;;;;;;;3.00;2.40;;;18.60;99.90;;;;;;5055659;28;20177;-76
2022/07/04 06:16:16;;;;;;;4.10;2.40;;;18.60;99.90;;;;;;5038549;28;20213;-76
2022/07/04 06:18:42;;;;;;;2.50;2.30;;;18.50;99.90;;;;;;5055035;28;20183;-75
2022/07/04 06:21:08;;;;;;;2.13;1.90;;;18.30;99.90;;;;;;5054868;28;20184;-76
2022/07/04 06:23:33;;;;;;;2.37;2.17;;;18.50;99.90;;;;;;5038111;28;20188;-76
2022/07/04 06:25:59;;;;;;;1.80;1.70;;;19.00;99.90;;;;;;5021777;28;20620;-76
2022/07/04 06:28:25;;;;;;;2.33;2.20;;;19.10;99.90;;;;;;5021955;28;20216;-76
2022/07/04 06:30:50;;;;;;;1.70;1.60;;;19.50;99.90;;;;;;5038245;28;20212;-76
2022/07/04 06:33:16;;;;;;;3.47;2.20;;;19.30;99.90;;;;;;5037975;28;20177;-76
2022/07/04 06:35:58;;;;;;;4.10;2.20;;;19.60;99.90;;;;;;5038163;28;20215;-76
2022/07/04 06:38:28;;;;;;;2.43;2.23;;;19.50;99.90;;;;;;5026492;28;20230;-77
2022/07/04 06:40:59;;;;;;;2.87;2.10;;;19.40;99.90;;;;;;5021922;28;20173;-77
2022/07/04 06:43:25;;;;;;;3.03;2.20;;;19.40;99.90;;;;;;5021726;28;20552;-77
2022/07/04 06:45:51;;;;;;;4.40;2.57;;;19.60;99.90;;;;;;5021336;28;20222;-77
2022/07/04 06:48:17;;;;;;;2.80;2.43;;;19.60;99.90;;;;;;5037880;28;20173;-77
2022/07/04 06:50:43;;;;;;;2.77;2.40;;;19.60;99.90;;;;;;5037983;28;20235;-77
2022/07/04 06:53:09;;;;;;;2.43;2.23;;;19.60;99.90;;;;;;5054270;28;20179;-77
2022/07/04 06:55:40;;;;;;;3.20;2.00;;;19.60;99.90;;;;;;5037852;28;20177;-77
2022/07/04 06:58:07;;;;;;;2.53;2.00;;;19.60;99.90;;;;;;5037954;28;20250;-77
2022/07/04 07:00:33;;;;;;;2.87;2.20;;;19.70;99.90;;;;;;5053230;28;20177;-78
2022/07/04 07:03:00;;;;;;;3.27;2.23;;;19.70;99.90;;;;;;5054223;28;20533;-77
2022/07/04 07:05:27;;;;;;;3.73;2.20;;;19.70;99.90;;;;;;5037968;28;20203;-77
2022/07/04 07:07:53;;;;;;;3.63;1.93;;;19.80;99.90;;;;;;5037732;28;20200;-78
2022/07/04 07:10:20;;;;;;;1.93;1.70;;;20.10;99.90;;;;;;5037569;28;20614;-78
2022/07/04 07:12:46;;;;;;;2.83;1.73;;;20.20;99.90;;;;;;5053837;28;20302;-77
2022/07/04 07:15:13;;;;;;;4.13;1.60;;;20.30;99.90;;;;;;5054059;28;20255;-77
2022/07/04 07:17:39;;;;;;;2.15;1.50;;;20.30;99.90;;;;;;5037365;28;20203;-77
2022/07/04 07:20:05;;;;;;;2.40;1.57;;;20.30;99.90;;;;;;5071939;28;20169;-77
2022/07/04 07:22:31;;;;;;;3.55;1.70;;;20.50;99.90;;;;;;5037519;28;20651;-77
2022/07/04 07:24:56;;;;;;;2.72;1.60;;;20.50;99.90;;;;;;5037586;28;20177;-77
2022/07/04 07:27:22;;;;;;;2.95;1.77;;;20.60;99.90;;;;;;5037449;28;20221;-77
2022/07/04 07:29:48;;;;;;;1.85;1.42;;;20.70;99.90;;;;;;5070544;28;20315;-77
2022/07/04 07:32:13;;;;;;;2.17;1.52;;;20.70;99.90;;;;;;5070279;28;20180;-78
2022/07/04 07:34:40;;;;;;;1.83;1.50;;;20.80;99.90;;;;;;5021042;28;20169;-77
2022/07/04 07:37:06;;;;;;;2.03;1.60;;;20.80;99.90;;;;;;5037310;28;20220;-77
2022/07/04 07:39:32;;;;;;;1.55;1.30;;;21.00;99.90;;;;;;5053928;28;20212;-78
2022/07/04 07:41:58;;;;;;;1.50;1.40;;;21.10;99.90;;;;;;5053615;28;20173;-77
2022/07/04 07:44:24;;;;;;;2.25;1.00;;;21.30;99.90;;;;;;5037187;28;20746;-78
2022/07/04 07:46:49;;;;;;;4.03;1.20;;;21.40;99.90;;;;;;5037464;28;20208;-77
2022/07/04 07:49:15;;;;;;;2.65;1.23;;;21.40;99.90;;;;;;5037369;28;20650;-77
2022/07/04 07:51:40;;;;;;;2.47;1.40;;;21.30;99.90;;;;;;5037462;28;20169;-77
2022/07/04 07:54:06;;;;;;;1.98;1.30;;;21.20;99.90;;;;;;5037213;28;20173;-77
2022/07/04 07:56:32;;;;;;;2.13;1.40;;;21.20;99.90;;;;;;5020379;28;20300;-78
2022/07/04 07:58:57;;;;;;;3.20;1.30;;;21.40;99.90;;;;;;5036315;28;20177;-77
2022/07/04 08:01:23;;;;;;;1.65;1.40;;;21.30;99.90;;;;;;5036108;28;20650;-77
2022/07/04 08:06:33;;;;;;;4.18;1.23;;;21.50;99.90;;;;;;5041610;28;20204;-75
2022/07/04 08:08:59;;;;;;;1.75;1.10;;;21.80;99.90;;;;;;5052396;28;20268;-75
2022/07/04 08:11:25;;;;;;;1.23;1.13;;;22.00;99.90;;;;;;5036474;28;20304;-75
2022/07/04 08:13:51;;;;;;;1.70;1.20;;;21.90;99.90;;;;;;5039092;28;20651;-76
2022/07/04 08:16:17;;;;;;;1.67;1.20;;;21.80;99.90;;;;;;5055670;28;20593;-75
2022/07/04 08:18:43;;;;;;;3.72;1.30;;;21.80;99.90;;;;;;5039355;28;20315;-76
2022/07/04 08:21:08;;;;;;;1.77;1.27;;;22.00;99.90;;;;;;5039678;28;20628;-78
2022/07/04 08:23:34;;;;;;;2.65;1.25;;;22.00;99.90;;;;;;5039363;28;20206;-78
2022/07/04 08:26:00;;;;;;;2.00;1.30;;;21.90;99.90;;;;;;5039233;28;20201;-77
2022/07/04 08:28:27;;;;;;;3.17;1.30;;;22.00;99.90;;;;;;5039481;28;20649;-76
2022/07/04 08:30:53;;;;;;;2.65;1.25;;;22.00;99.90;;;;;;5041144;28;20205;-76
2022/07/04 08:33:19;;;;;;;3.78;1.27;;;22.00;99.90;;;;;;5025320;28;20184;-77
2022/07/04 08:35:45;;;;;;;2.97;1.10;;;22.20;99.90;;;;;;5025757;28;20173;-77
2022/07/04 08:38:10;;;;;;;1.80;1.10;;;22.40;99.90;;;;;;5025147;28;20177;-77
2022/07/04 08:40:36;;;;;;;1.67;1.10;;;22.60;99.90;;;;;;5022936;28;20243;-77
2022/07/04 08:43:03;;;;;;;2.35;1.33;;;22.70;99.90;;;;;;5038762;28;20173;-78
2022/07/04 08:45:32;;;;;;;2.40;1.50;;;22.70;99.90;;;;;;5023038;28;20181;-79
2022/07/04 08:48:07;;;;;;;1.60;1.20;;;22.80;99.90;;;;;;5023236;28;20204;-77
2022/07/04 08:50:36;;;;;;;2.63;1.30;;;22.70;99.90;;;;;;5023547;28;20200;-77
2022/07/04 08:53:09;;;;;;;2.55;1.40;;;22.70;99.90;;;;;;5023140;28;20244;-77
2022/07/04 08:58:39;;;;;;;1.67;1.40;;;22.90;99.90;;;;;;5110303;27;20585;-76
2022/07/04 09:01:15;;;;;;;1.80;1.20;;;22.80;99.90;;;;;;5091985;28;20180;-76
2022/07/04 09:03:45;;;;;;;1.52;1.20;;;22.80;99.90;;;;;;5092524;28;20210;-76
2022/07/04 09:06:12;;;;;;;2.20;1.40;;;23.00;99.90;;;;;;5088737;28;20197;-76
2022/07/04 09:08:39;;;;;;;2.55;1.20;;;23.00;99.90;;;;;;5071849;28;20172;-76
2022/07/04 09:11:05;;;;;;;1.80;1.27;;;23.00;99.90;;;;;;5086239;22;20253;-81
2022/07/04 09:13:31;;;;;;;1.10;1.00;;;23.20;99.90;;;;;;5031805;28;20185;-85
2022/07/04 09:15:57;;;;;;;1.40;1.10;;;23.10;98.60;;;;;;5031716;28;20264;-85
2022/07/04 09:18:29;;;;;;;1.73;1.20;;;23.20;99.30;;;;;;5031395;28;20194;-86
2022/07/04 09:20:57;;;;;;;1.80;1.10;;;23.40;98.00;;;;;;5032193;28;20197;-84
2022/07/04 09:23:25;;;;;;;1.08;1.00;;;23.50;97.20;;;;;;5032962;28;20174;-83
2022/07/04 09:26:13;;;;;;;2.22;1.30;;;23.70;97.70;;;;;;5034966;28;20174;-83
2022/07/04 09:28:44;;;;;;;1.77;1.20;;;23.80;97.10;;;;;;5050480;28;20170;-82
2022/07/04 09:31:24;;;;;;;1.48;1.10;;;24.00;96.60;;;;;;5051520;28;20193;-83
2022/07/04 09:33:58;;;;;;;1.77;0.90;;;24.30;95.40;;;;;;5034831;28;20182;-83
2022/07/04 09:36:25;;;;;;;1.35;1.10;;;24.70;95.90;;;;;;5051487;28;20165;-83
2022/07/04 09:39:24;;;;;;;1.88;1.15;;;24.70;93.80;;;;;;5034764;28;20193;-83
2022/07/04 09:42:01;;;;;;;3.25;1.30;;;24.40;92.30;;;;;;5001502;28;20786;-82
2022/07/04 09:44:45;;;;;;;1.30;1.20;;;24.30;93.60;;;;;;5035290;28;20180;-83
2022/07/04 09:47:27;;;;;;;1.60;1.10;;;24.60;93.10;;;;;;5034718;28;20177;-83
2022/07/04 09:50:00;;;;;;;2.78;1.15;;;24.50;92.20;;;;;;5039006;28;20205;-82
2022/07/04 09:52:27;;;;;;;1.50;1.20;;;24.60;92.20;;;;;;5055370;28;20174;-82
2022/07/04 09:54:58;;;;;;;2.33;1.25;;;24.50;90.50;;;;;;5051733;28;20178;-84
2022/07/04 09:57:23;;;;;;;2.28;1.10;;;24.20;91.20;;;;;;5054222;28;20196;-82
2022/07/04 09:59:49;;;;;;;1.60;1.10;;;24.40;91.80;;;;;;5036140;28;20202;-82
2022/07/04 10:02:14;;;;;;;1.00;0.82;;;24.50;91.50;;;;;;5052761;28;20174;-83
2022/07/04 10:04:49;;;;;;;1.27;1.00;;;24.70;89.70;;;;;;5035286;28;20248;-83
2022/07/04 10:07:31;;;;;;;1.45;1.20;;;24.70;88.80;;;;;;5052589;28;20207;-81
2022/07/04 10:09:57;;;;;;;1.83;1.20;;;24.60;89.00;;;;;;5040193;28;20700;-83
2022/07/04 10:12:29;;;;;;;1.75;1.00;;;25.00;89.80;;;;;;5020535;28;20178;-84
2022/07/04 10:14:58;;;;;;;2.30;1.20;;;25.20;86.90;;;;;;5025520;28;20325;-83
2022/07/04 10:17:24;;;;;;;1.83;1.00;;;25.50;85.20;;;;;;5026297;28;20300;-83
2022/07/04 10:19:52;;;;;;;2.78;1.10;;;25.90;88.10;;;;;;5025550;28;20231;-83
2022/07/04 10:22:18;;;;;;;0.85;0.80;;;26.20;82.80;;;;;;5025799;28;20186;-82
2022/07/04 10:24:44;;;;;;;1.63;1.00;;;26.30;77.50;;;;;;5043207;28;20178;-83
2022/07/04 10:27:10;;;;;;;1.95;1.10;;;26.20;75.40;;;;;;5026986;28;20272;-83
2022/07/04 10:29:36;;;;;;;1.30;0.80;;;26.20;73.30;;;;;;5026779;28;20175;-83
2022/07/04 10:32:02;;;;;;;1.23;1.10;;;26.30;73.10;;;;;;5024615;28;20185;-86
2022/07/04 10:34:28;;;;;;;1.70;1.00;;;26.50;70.80;;;;;;5016927;28;20178;-86
2022/07/04 10:36:54;;;;;;;1.00;0.90;;;26.60;69.10;;;;;;5016912;28;20209;-86
2022/07/04 10:39:23;;;;;;;5.35;2.85;;;26.90;65.60;;;;;;5022356;28;20532;-81
2022/07/04 10:42:01;;;;;;;0.90;0.90;;;27.00;65.40;;;;;;5019567;28;20265;-78
2022/07/04 10:44:34;;;;;;;5.32;2.80;;;26.80;64.40;;;;;;5018973;28;20182;-80
2022/07/04 10:47:00;;;;;;;4.70;2.70;;;26.70;70.70;;;;;;5026628;28;20185;-81
2022/07/04 10:49:28;;;;;;;6.72;3.25;;;26.80;70.00;;;;;;5024861;28;20179;-80
2022/07/04 10:52:00;;;;;;;1.77;1.10;;;26.90;67.40;;;;;;5018422;28;20178;-79
2022/07/04 10:54:32;;;;;;;1.83;1.00;;;27.30;64.20;;;;;;5017930;28;20257;-79
2022/07/04 10:57:12;;;;;;;2.25;1.20;;;27.80;62.50;;;;;;5016387;28;20202;-79
2022/07/04 10:59:39;;;;;;;1.77;0.90;;;27.40;59.30;;;;;;5033018;28;20166;-79
2022/07/04 11:02:08;;;;;;;2.65;0.93;;;27.30;58.50;;;;;;5016731;28;20186;-82
2022/07/04 11:04:57;;;;;;;1.35;1.00;;;27.10;59.60;;;;;;5033097;28;20257;-79
2022/07/04 11:07:42;;;;;;;1.35;1.05;;;26.50;58.30;;;;;;5033200;28;20204;-82
2022/07/04 11:12:54;;;;;;;1.38;0.90;;;27.10;57.80;;;;;;5033902;28;20231;-83
2022/07/04 11:15:32;;;;;;;1.00;0.80;;;27.50;57.40;;;;;;5032999;28;20185;-83
2022/07/04 11:17:59;;;;;;;2.65;0.80;;;27.70;57.30;;;;;;5033073;28;20233;-83
2022/07/04 11:20:28;;;;;;;1.98;0.90;;;27.90;55.40;;;;;;5015736;28;20206;-83
2022/07/04 11:23:24;;;;;;;2.00;0.93;;;28.10;56.60;;;;;;5016459;28;20201;-83
2022/07/04 11:25:52;;;;;;;2.00;1.00;;;28.20;55.00;;;;;;5032755;28;20175;-83
2022/07/04 11:28:35;;;;;;;0.95;0.80;;;28.40;53.50;;;;;;5032702;28;20528;-83
2022/07/04 11:31:00;;;;;;;0.70;0.70;;;28.50;54.30;;;;;;5019232;28;20209;-83
2022/07/04 11:33:29;;;;;;;1.55;0.80;;;28.50;53.70;;;;;;5016953;28;20190;-83
2022/07/04 11:36:14;;;;;;;1.40;0.68;;;28.90;52.50;;;;;;5032919;28;20386;-83
2022/07/04 11:38:43;;;;;;;0.80;0.80;;;28.70;49.50;;;;;;5016168;28;20233;-83
2022/07/04 11:46:38;;;;;;;1.13;0.90;;;27.60;50.20;;;;;;5032675;28;20177;-83
2022/07/04 11:49:11;;;;;;;0.88;0.73;;;27.40;49.70;;;;;;5015800;28;20582;-83
2022/07/04 11:51:48;;;;;;;0.70;0.70;;;27.50;51.70;;;;;;5016170;28;20195;-83
2022/07/04 11:54:13;;;;;;;1.92;0.70;;;27.70;51.20;;;;;;5016172;28;20205;-83
2022/07/04 11:56:39;;;;;;;1.48;0.70;;;27.80;50.50;;;;;;5016312;28;20234;-83
2022/07/04 11:59:15;;;;;;;1.05;0.80;;;28.20;49.80;;;;;;5016242;28;20170;-83
2022/07/04 12:01:43;;;;;;;0.88;0.73;;;28.30;48.50;;;;;;5015624;28;20285;-83
2022/07/04 12:04:26;;;;;;;1.92;0.60;;;28.20;48.40;;;;;;5015568;28;20547;-83
2022/07/04 12:06:52;;;;;;;1.67;0.80;;;28.50;46.40;;;;;;5015875;28;20179;-83
2022/07/04 12:09:17;;;;;;;1.20;0.70;;;28.80;46.30;;;;;;5015775;28;20182;-84
2022/07/04 12:11:59;;;;;;;1.40;0.60;;;29.20;47.00;;;;;;5016350;28;20695;-84
2022/07/04 12:14:26;;;;;;;1.05;0.80;;;29.50;47.00;;;;;;5016247;28;20510;-83
2022/07/04 12:17:15;;;;;;;1.08;0.70;;;29.70;44.00;;;;;;5015361;28;20672;-84
2022/07/04 12:19:58;;;;;;;1.10;0.85;;;29.30;43.50;;;;;;5031674;28;20257;-84
2022/07/04 12:22:36;;;;;;;1.65;0.65;;;28.90;43.80;;;;;;5031511;28;20201;-84
2022/07/04 12:25:04;;;;;;;1.45;0.98;;;29.00;43.60;;;;;;5015133;28;20177;-84
2022/07/04 12:27:29;;;;;;;0.90;0.80;;;28.90;43.50;;;;;;5032787;28;20178;-83
2022/07/04 12:29:58;;;;;;;0.60;0.60;;;28.50;44.00;;;;;;5016689;28;20229;-83
2022/07/04 12:32:24;;;;;;;0.70;0.60;;;28.90;45.30;;;;;;5016589;28;20608;-83
2022/07/04 12:34:49;;;;;;;0.80;0.65;;;29.20;43.40;;;;;;5033388;28;20178;-83
2022/07/04 12:37:16;;;;;;;0.77;0.70;;;29.40;43.50;;;;;;5015314;28;20295;-84
2022/07/04 12:39:43;;;;;;;0.88;0.77;;;29.20;42.90;;;;;;5031976;28;20202;-84
2022/07/04 12:42:14;;;;;;;2.30;0.82;;;29.40;44.20;;;;;;5015196;28;20181;-82
2022/07/04 12:44:41;;;;;;;1.33;0.70;;;29.50;41.50;;;;;;5031239;28;20166;-82
2022/07/04 12:47:07;;;;;;;0.60;0.60;;;29.40;42.40;;;;;;5015065;28;20178;-81
2022/07/04 12:49:34;;;;;;;1.10;0.80;;;28.90;41.80;;;;;;5015277;28;20178;-81
2022/07/04 12:52:15;;;;;;;1.88;0.90;;;28.80;42.00;;;;;;5014674;28;20708;-82
2022/07/04 12:54:42;;;;;;;1.00;0.70;;;28.60;41.60;;;;;;5031771;28;20167;-82
2022/07/04 12:57:11;;;;;;;0.88;0.70;;;28.50;41.60;;;;;;5031328;28;20738;-82
2022/07/04 12:59:38;;;;;;;0.93;0.70;;;28.60;41.90;;;;;;5015111;28;20187;-82
2022/07/04 13:02:04;;;;;;;0.60;0.60;;;28.70;41.40;;;;;;5015171;28;20269;-81
2022/07/04 13:04:31;;;;;;;0.90;0.70;;;28.70;41.20;;;;;;5031354;28;20253;-82
2022/07/04 13:06:57;;;;;;;1.77;0.60;;;28.70;41.10;;;;;;5014834;28;20212;-82
2022/07/04 13:09:23;;;;;;;1.98;0.80;;;28.80;41.10;;;;;;5014745;28;20182;-82
2022/07/04 13:14:33;;;;;;;1.00;0.65;;;29.00;39.50;;;;;;5034084;28;20173;-82